Time;durP1;ratioP1;P1;durP2;ratioP2;P2;SDS_P1;SDS_P2;PMS_P1;PMS_P2;Temp;Humidity;BMP_temperature;BMP_pressure;BME280_temperature;BME280_humidity;BME280_pressure;Samples;Min_cycle;Max_cycle;Signal;HPM_P1;HPM_P2
2022/12/16 00:01:17;;;;;;;38.10;23.27;;;2.40;99.90;;;;;;5027504;28;20196;-82
2022/12/16 00:03:48;;;;;;;46.92;24.88;;;2.40;99.90;;;;;;5031005;28;20172;-77
2022/12/16 00:06:14;;;;;;;38.00;23.65;;;2.40;99.90;;;;;;5043169;28;20187;-77
2022/12/16 00:08:40;;;;;;;38.53;23.77;;;2.40;99.90;;;;;;5024800;28;20188;-77
2022/12/16 00:11:07;;;;;;;37.42;23.50;;;2.40;99.90;;;;;;5020107;28;20173;-76
2022/12/16 00:13:34;;;;;;;37.88;23.63;;;2.40;99.90;;;;;;5046020;28;20605;-76
2022/12/16 00:16:06;;;;;;;45.97;25.08;;;2.40;99.90;;;;;;5032856;28;20172;-75
2022/12/16 00:18:32;;;;;;;37.35;23.40;;;2.40;99.90;;;;;;5028991;28;20183;-76
2022/12/16 00:20:57;;;;;;;35.45;21.83;;;2.40;99.90;;;;;;5029336;28;20187;-75
2022/12/16 00:23:23;;;;;;;38.58;21.88;;;2.30;99.90;;;;;;5028559;28;20241;-74
2022/12/16 00:25:50;;;;;;;41.63;20.88;;;2.30;99.90;;;;;;5032576;28;20242;-81
2022/12/16 00:28:16;;;;;;;36.65;22.17;;;2.20;99.90;;;;;;5014030;28;20215;-79
2022/12/16 00:30:43;;;;;;;36.55;20.60;;;2.20;99.90;;;;;;5029495;28;20180;-76
2022/12/16 00:33:09;;;;;;;32.72;19.55;;;2.20;99.90;;;;;;5022837;28;20183;-80
2022/12/16 00:35:35;;;;;;;34.33;18.80;;;2.20;99.90;;;;;;5027347;28;20233;-76
2022/12/16 00:38:00;;;;;;;32.13;18.88;;;2.20;99.90;;;;;;5031391;28;20188;-75
2022/12/16 00:40:26;;;;;;;31.70;18.65;;;2.20;99.90;;;;;;5031772;28;20254;-75
2022/12/16 00:42:52;;;;;;;28.60;15.82;;;2.20;99.90;;;;;;5030292;28;20211;-76
2022/12/16 00:45:19;;;;;;;33.00;15.75;;;2.20;99.90;;;;;;5027330;28;21011;-75
2022/12/16 00:47:47;;;;;;;28.90;15.02;;;2.20;99.90;;;;;;5032729;28;20160;-75
2022/12/16 00:50:13;;;;;;;27.10;13.55;;;2.20;99.90;;;;;;5023370;28;20798;-76
2022/12/16 00:52:39;;;;;;;24.85;12.32;;;2.20;99.90;;;;;;5013812;28;20275;-80
2022/12/16 00:55:05;;;;;;;21.30;11.77;;;2.20;99.90;;;;;;5028092;28;20576;-84
2022/12/16 00:57:30;;;;;;;29.08;11.55;;;2.30;99.90;;;;;;5025630;28;20279;-78
2022/12/16 00:59:56;;;;;;;18.38;10.18;;;2.30;99.90;;;;;;5025703;28;20271;-80
2022/12/16 01:02:22;;;;;;;16.55;9.07;;;2.30;99.90;;;;;;5029823;28;20219;-77
2022/12/16 01:04:47;;;;;;;14.65;8.13;;;2.30;99.90;;;;;;5050417;28;20233;-75
2022/12/16 01:07:13;;;;;;;13.55;7.75;;;2.40;99.90;;;;;;5035179;28;20262;-74
2022/12/16 01:09:39;;;;;;;15.32;6.68;;;2.40;99.90;;;;;;5038950;28;20559;-77
2022/12/16 01:12:05;;;;;;;13.10;6.32;;;2.50;99.90;;;;;;5036662;28;20199;-75
2022/12/16 01:14:30;;;;;;;15.75;6.30;;;2.50;99.90;;;;;;5034892;28;20209;-75
2022/12/16 01:16:56;;;;;;;11.80;5.68;;;2.60;99.90;;;;;;5031085;28;20180;-78
2022/12/16 01:19:22;;;;;;;13.77;5.63;;;2.60;99.90;;;;;;5033501;28;20233;-75
2022/12/16 01:21:48;;;;;;;10.50;5.57;;;2.60;99.90;;;;;;5036353;28;20668;-74
2022/12/16 01:24:14;;;;;;;11.95;5.90;;;2.70;99.90;;;;;;5032553;28;20183;-78
2022/12/16 01:26:39;;;;;;;9.38;5.38;;;2.70;99.90;;;;;;5034552;28;20187;-74
2022/12/16 01:29:05;;;;;;;10.98;5.40;;;2.70;99.90;;;;;;5035227;28;20176;-75
2022/12/16 01:31:31;;;;;;;12.55;5.28;;;2.70;99.90;;;;;;5036103;28;20179;-76
2022/12/16 01:33:57;;;;;;;12.43;5.55;;;2.80;99.90;;;;;;5034331;28;20180;-78
2022/12/16 01:36:23;;;;;;;10.25;5.32;;;2.80;99.90;;;;;;5035029;28;20195;-77
2022/12/16 01:38:49;;;;;;;10.13;5.38;;;2.80;99.90;;;;;;5033950;28;20211;-76
2022/12/16 01:41:16;;;;;;;8.18;5.32;;;2.80;99.90;;;;;;5034745;28;20577;-76
2022/12/16 01:43:44;;;;;;;11.70;5.43;;;2.80;99.90;;;;;;5034434;28;20191;-76
2022/12/16 01:46:12;;;;;;;9.98;5.65;;;2.90;99.90;;;;;;5029278;28;20226;-77
2022/12/16 01:48:57;;;;;;;8.68;5.07;;;2.90;99.90;;;;;;5019516;28;20725;-77
2022/12/16 01:51:32;;;;;;;8.30;4.75;;;2.90;99.90;;;;;;5035734;28;20172;-77
2022/12/16 01:54:11;;;;;;;10.80;4.88;;;3.00;99.90;;;;;;5034598;28;20277;-76
2022/12/16 01:56:58;;;;;;;10.98;5.22;;;2.90;99.90;;;;;;5030727;28;20183;-79
2022/12/16 01:59:28;;;;;;;5.63;4.55;;;3.00;99.90;;;;;;5025609;28;20184;-75
2022/12/16 02:01:54;;;;;;;8.35;4.63;;;3.00;99.90;;;;;;5034646;28;20301;-77
2022/12/16 02:04:20;;;;;;;7.88;4.50;;;3.00;99.90;;;;;;5024926;28;20546;-79
2022/12/16 02:06:46;;;;;;;12.95;4.20;;;3.00;99.90;;;;;;5034913;28;20175;-82
2022/12/16 02:09:14;;;;;;;8.23;4.43;;;3.00;99.90;;;;;;5031058;28;21557;-75
2022/12/16 02:12:09;;;;;;;9.63;4.50;;;3.10;99.90;;;;;;5025707;28;20242;-75
2022/12/16 02:15:05;;;;;;;7.65;4.28;;;3.10;99.90;;;;;;5026006;28;20184;-77
2022/12/16 02:17:52;;;;;;;6.75;4.25;;;3.10;99.90;;;;;;5032779;28;20172;-76
2022/12/16 02:21:06;;;;;;;7.85;4.40;;;3.10;99.90;;;;;;5033514;28;20187;-75
2022/12/16 02:23:54;;;;;;;8.38;4.03;;;3.10;99.90;;;;;;4996593;28;20193;-75
2022/12/16 02:26:29;;;;;;;9.63;4.28;;;3.10;99.90;;;;;;5035140;28;20266;-75
2022/12/16 02:29:23;;;;;;;8.38;4.13;;;3.10;99.90;;;;;;5026888;28;20182;-76
2022/12/16 02:32:09;;;;;;;10.00;4.57;;;3.10;99.90;;;;;;5015543;28;20185;-76
2022/12/16 02:34:49;;;;;;;6.72;4.40;;;3.10;99.90;;;;;;5026508;28;20544;-76
2022/12/16 02:37:30;;;;;;;8.40;4.80;;;3.10;99.90;;;;;;5029943;28;20227;-76
2022/12/16 02:40:00;;;;;;;8.32;4.65;;;3.00;99.90;;;;;;5034234;28;20182;-76
2022/12/16 02:42:50;;;;;;;14.50;4.82;;;3.10;99.90;;;;;;5033712;28;20597;-77
2022/12/16 02:45:20;;;;;;;11.15;5.30;;;3.10;99.90;;;;;;5033128;28;20186;-76
2022/12/16 02:47:46;;;;;;;9.55;4.82;;;3.10;99.90;;;;;;5032439;28;20294;-76
2022/12/16 02:50:23;;;;;;;10.88;4.82;;;3.00;99.90;;;;;;5032982;28;20695;-76
2022/12/16 02:52:51;;;;;;;11.38;5.60;;;3.00;99.90;;;;;;5034899;28;20171;-76
2022/12/16 02:55:17;;;;;;;9.57;4.95;;;3.10;99.90;;;;;;5033558;28;20182;-75
2022/12/16 02:58:11;;;;;;;10.68;5.28;;;3.10;99.90;;;;;;5033261;28;20173;-76
2022/12/16 03:01:03;;;;;;;11.73;5.68;;;3.00;99.90;;;;;;5030569;28;20205;-76
2022/12/16 03:03:55;;;;;;;10.25;5.63;;;3.00;99.90;;;;;;5047785;28;20192;-77
2022/12/16 03:06:23;;;;;;;11.70;6.05;;;3.00;99.90;;;;;;5038850;28;20673;-77
2022/12/16 03:08:58;;;;;;;11.38;6.50;;;3.00;99.90;;;;;;5031864;28;20225;-77
2022/12/16 03:11:27;;;;;;;16.00;6.70;;;3.10;99.90;;;;;;5032816;28;20175;-75
2022/12/16 03:13:55;;;;;;;11.50;7.72;;;3.00;99.90;;;;;;5019843;28;20172;-79
2022/12/16 03:16:26;;;;;;;13.55;8.18;;;3.00;99.90;;;;;;5033869;28;20184;-75
2022/12/16 03:18:57;;;;;;;18.63;8.43;;;3.00;99.90;;;;;;5033353;28;20180;-78
2022/12/16 03:21:28;;;;;;;15.45;9.05;;;3.00;99.90;;;;;;5028434;28;20212;-75
2022/12/16 03:24:01;;;;;;;19.58;10.52;;;2.90;99.90;;;;;;5031981;28;20172;-77
2022/12/16 03:26:37;;;;;;;21.30;11.95;;;3.00;99.90;;;;;;5034496;28;20171;-76
2022/12/16 03:29:15;;;;;;;18.63;12.07;;;3.00;99.90;;;;;;5033475;28;20180;-75
2022/12/16 03:31:48;;;;;;;20.75;13.60;;;3.00;99.90;;;;;;5027688;28;20184;-77
2022/12/16 03:34:18;;;;;;;25.75;16.65;;;3.00;99.90;;;;;;5033251;28;20184;-75
2022/12/16 03:36:49;;;;;;;26.05;17.10;;;3.10;99.90;;;;;;5034182;28;20191;-76
2022/12/16 03:39:18;;;;;;;29.88;19.20;;;3.00;99.90;;;;;;5047061;28;20882;-75
2022/12/16 03:41:48;;;;;;;32.25;21.42;;;3.10;99.90;;;;;;5030265;28;20289;-76
2022/12/16 03:44:14;;;;;;;35.95;22.00;;;3.10;99.90;;;;;;5024137;28;20194;-76
2022/12/16 03:46:40;;;;;;;38.88;23.38;;;3.00;99.90;;;;;;5048495;28;20258;-76
2022/12/16 03:49:05;;;;;;;49.97;25.88;;;3.10;99.90;;;;;;5033199;28;20642;-76
2022/12/16 03:51:31;;;;;;;41.33;22.20;;;3.10;99.90;;;;;;5029029;28;20275;-78
2022/12/16 03:53:57;;;;;;;38.30;21.98;;;3.10;99.90;;;;;;5029644;28;20631;-76
2022/12/16 03:56:22;;;;;;;36.63;23.67;;;3.10;99.90;;;;;;5020471;28;20343;-76
2022/12/16 03:58:48;;;;;;;35.45;22.30;;;3.00;99.90;;;;;;5038967;28;20200;-76
2022/12/16 04:01:14;;;;;;;41.75;24.70;;;3.00;99.90;;;;;;5039394;28;20204;-77
2022/12/16 04:03:40;;;;;;;39.03;22.38;;;2.90;99.90;;;;;;5027933;28;20187;-78
2022/12/16 04:06:06;;;;;;;39.65;24.17;;;2.90;99.90;;;;;;5026605;28;20199;-77
2022/12/16 04:08:31;;;;;;;42.00;24.85;;;2.90;99.90;;;;;;5017186;28;20215;-76
2022/12/16 04:25:09;;;;;;;41.47;23.27;;;2.60;99.90;;;;;;5030972;28;20345;-75
2022/12/16 04:27:35;;;;;;;55.90;26.52;;;2.50;99.90;;;;;;5032300;28;20257;-76
2022/12/16 04:30:19;;;;;;;46.85;27.58;;;2.50;99.90;;;;;;5030618;28;20230;-76
